sensor_id;sensor_type;location;lat;lon;timestamp;pressure;altitude;pressure_sealevel;temperature;humidity
38530;BME280;24301;54.332;48.386;2023-03-04T00:01:42;97612.75;;;-1.56;87.68
38530;BME280;24301;54.332;48.386;2023-03-04T00:04:08;97628.34;;;-1.45;87.59
38530;BME280;24301;54.332;48.386;2023-03-04T00:06:34;97623.28;;;-1.37;87.79
38530;BME280;24301;54.332;48.386;2023-03-04T00:09:00;97630.28;;;-1.24;88.02
38530;BME280;24301;54.332;48.386;2023-03-04T00:11:26;97635.50;;;-1.18;87.78
38530;BME280;24301;54.332;48.386;2023-03-04T00:13:52;97640.75;;;-1.10;87.77
38530;BME280;24301;54.332;48.386;2023-03-04T00:16:17;97640.03;;;-0.99;87.33
38530;BME280;24301;54.332;48.386;2023-03-04T00:18:43;97636.66;;;-0.92;87.91
38530;BME280;24301;54.332;48.386;2023-03-04T00:21:09;97629.81;;;-0.87;87.99
38530;BME280;24301;54.332;48.386;2023-03-04T00:23:35;97640.19;;;-0.81;87.42
38530;BME280;24301;54.332;48.386;2023-03-04T00:26:01;97634.13;;;-0.88;86.95
38530;BME280;24301;54.332;48.386;2023-03-04T00:28:26;97626.25;;;-1.00;86.74
38530;BME280;24301;54.332;48.386;2023-03-04T00:30:52;97640.00;;;-1.01;86.87
38530;BME280;24301;54.332;48.386;2023-03-04T00:33:18;97639.06;;;-1.09;86.73
38530;BME280;24301;54.332;48.386;2023-03-04T00:35:44;97635.44;;;-1.24;86.22
38530;BME280;24301;54.332;48.386;2023-03-04T00:38:10;97640.47;;;-1.35;86.69
38530;BME280;24301;54.332;48.386;2023-03-04T00:40:36;97636.03;;;-1.48;86.40
38530;BME280;24301;54.332;48.386;2023-03-04T00:43:03;97642.78;;;-1.58;86.73
38530;BME280;24301;54.332;48.386;2023-03-04T00:45:29;97641.06;;;-1.59;86.86
38530;BME280;24301;54.332;48.386;2023-03-04T00:47:55;97643.66;;;-1.56;87.38
38530;BME280;24301;54.332;48.386;2023-03-04T00:50:20;97641.19;;;-1.48;87.50
38530;BME280;24301;54.332;48.386;2023-03-04T00:52:46;97639.59;;;-1.37;88.00
38530;BME280;24301;54.332;48.386;2023-03-04T00:55:12;97642.25;;;-1.32;87.26
38530;BME280;24301;54.332;48.386;2023-03-04T00:57:38;97640.50;;;-1.33;87.34
38530;BME280;24301;54.332;48.386;2023-03-04T01:00:06;97636.25;;;-1.31;86.82
38530;BME280;24301;54.332;48.386;2023-03-04T01:02:32;97642.22;;;-1.35;86.85
38530;BME280;24301;54.332;48.386;2023-03-04T01:04:58;97642.22;;;-1.35;86.71
38530;BME280;24301;54.332;48.386;2023-03-04T01:07:23;97646.47;;;-1.37;86.47
38530;BME280;24301;54.332;48.386;2023-03-04T01:09:49;97642.97;;;-1.42;86.04
38530;BME280;24301;54.332;48.386;2023-03-04T01:12:15;97636.91;;;-1.45;86.36
38530;BME280;24301;54.332;48.386;2023-03-04T01:14:42;97646.34;;;-1.48;86.40
38530;BME280;24301;54.332;48.386;2023-03-04T01:17:08;97647.16;;;-1.51;85.88
38530;BME280;24301;54.332;48.386;2023-03-04T01:19:34;97640.28;;;-1.52;86.00
38530;BME280;24301;54.332;48.386;2023-03-04T01:22:00;97641.94;;;-1.57;85.77
38530;BME280;24301;54.332;48.386;2023-03-04T01:24:26;97646.97;;;-1.66;85.63
38530;BME280;24301;54.332;48.386;2023-03-04T01:26:51;97639.94;;;-1.78;85.41
38530;BME280;24301;54.332;48.386;2023-03-04T01:29:17;97639.78;;;-1.91;85.75
38530;BME280;24301;54.332;48.386;2023-03-04T01:31:43;97646.72;;;-1.83;85.70
38530;BME280;24301;54.332;48.386;2023-03-04T01:34:09;97643.34;;;-1.81;85.65
38530;BME280;24301;54.332;48.386;2023-03-04T01:36:35;97642.56;;;-1.74;86.16
38530;BME280;24301;54.332;48.386;2023-03-04T01:39:01;97646.03;;;-1.73;85.78
38530;BME280;24301;54.332;48.386;2023-03-04T01:41:27;97636.63;;;-1.69;85.76
38530;BME280;24301;54.332;48.386;2023-03-04T01:43:57;97637.47;;;-1.70;85.51
38530;BME280;24301;54.332;48.386;2023-03-04T01:46:26;97638.28;;;-1.75;85.30
38530;BME280;24301;54.332;48.386;2023-03-04T01:48:52;97636.47;;;-1.80;85.16
38530;BME280;24301;54.332;48.386;2023-03-04T01:51:19;97646.69;;;-1.88;84.98
38530;BME280;24301;54.332;48.386;2023-03-04T01:53:47;97638.00;;;-1.93;84.92
38530;BME280;24301;54.332;48.386;2023-03-04T01:56:33;97631.09;;;-1.97;84.84
38530;BME280;24301;54.332;48.386;2023-03-04T01:59:17;97652.53;;;-1.98;84.80
38530;BME280;24301;54.332;48.386;2023-03-04T02:01:46;97645.56;;;-2.04;85.12
38530;BME280;24301;54.332;48.386;2023-03-04T02:04:15;97635.25;;;-2.07;84.92
38530;BME280;24301;54.332;48.386;2023-03-04T02:06:41;97635.25;;;-2.07;85.41
38530;BME280;24301;54.332;48.386;2023-03-04T02:09:07;97636.06;;;-2.10;84.94
38530;BME280;24301;54.332;48.386;2023-03-04T02:11:35;97644.69;;;-2.08;85.54
38530;BME280;24301;54.332;48.386;2023-03-04T02:14:01;97630.88;;;-2.13;85.75
38530;BME280;24301;54.332;48.386;2023-03-04T02:16:27;97630.97;;;-2.05;85.41
38530;BME280;24301;54.332;48.386;2023-03-04T02:18:54;97626.75;;;-2.02;85.24
38530;BME280;24301;54.332;48.386;2023-03-04T02:21:24;97625.94;;;-1.97;85.47
38530;BME280;24301;54.332;48.386;2023-03-04T02:26:30;97628.59;;;-1.93;85.00
38530;BME280;24301;54.332;48.386;2023-03-04T02:28:59;97623.41;;;-1.94;85.29
38530;BME280;24301;54.332;48.386;2023-03-04T02:31:34;97632.91;;;-1.90;85.57
38530;BME280;24301;54.332;48.386;2023-03-04T02:34:04;97615.78;;;-1.88;85.12
38530;BME280;24301;54.332;48.386;2023-03-04T02:36:31;97614.94;;;-1.87;85.03
38530;BME280;24301;54.332;48.386;2023-03-04T02:39:04;97617.44;;;-1.90;85.12
38530;BME280;24301;54.332;48.386;2023-03-04T02:41:30;97616.59;;;-1.91;85.05
38530;BME280;24301;54.332;48.386;2023-03-04T02:43:57;97622.66;;;-1.87;85.18
38530;BME280;24301;54.332;48.386;2023-03-04T02:46:24;97621.78;;;-1.89;84.86
38530;BME280;24301;54.332;48.386;2023-03-04T02:48:50;97619.09;;;-1.97;85.00
38530;BME280;24301;54.332;48.386;2023-03-04T02:51:16;97624.19;;;-2.00;84.61
38530;BME280;24301;54.332;48.386;2023-03-04T02:53:42;97618.19;;;-1.97;85.12
38530;BME280;24301;54.332;48.386;2023-03-04T02:56:09;97612.22;;;-1.96;85.29
38530;BME280;24301;54.332;48.386;2023-03-04T02:58:36;97613.94;;;-1.95;85.31
38530;BME280;24301;54.332;48.386;2023-03-04T03:01:04;97611.44;;;-1.91;85.32
38530;BME280;24301;54.332;48.386;2023-03-04T03:03:31;97612.34;;;-1.87;85.64
38530;BME280;24301;54.332;48.386;2023-03-04T03:05:57;97611.47;;;-1.88;85.21
38530;BME280;24301;54.332;48.386;2023-03-04T03:08:25;97600.25;;;-1.91;84.98
38530;BME280;24301;54.332;48.386;2023-03-04T03:10:52;97612.38;;;-1.84;85.18
38530;BME280;24301;54.332;48.386;2023-03-04T03:13:18;97608.97;;;-1.83;85.02
38530;BME280;24301;54.332;48.386;2023-03-04T03:15:44;97614.19;;;-1.77;85.12
38530;BME280;24301;54.332;48.386;2023-03-04T03:18:11;97611.63;;;-1.77;84.76
38530;BME280;24301;54.332;48.386;2023-03-04T03:20:37;97613.38;;;-1.74;84.85
38530;BME280;24301;54.332;48.386;2023-03-04T03:23:03;97588.41;;;-1.77;84.29
38530;BME280;24301;54.332;48.386;2023-03-04T03:25:29;97606.44;;;-1.78;84.00
38530;BME280;24301;54.332;48.386;2023-03-04T03:27:55;97601.25;;;-1.81;83.86
38530;BME280;24301;54.332;48.386;2023-03-04T03:30:21;97599.47;;;-1.87;84.08
38530;BME280;24301;54.332;48.386;2023-03-04T03:32:46;97599.50;;;-1.84;84.11
38530;BME280;24301;54.332;48.386;2023-03-04T03:35:12;97595.22;;;-1.82;83.90
38530;BME280;24301;54.332;48.386;2023-03-04T03:37:39;97592.66;;;-1.80;83.78
38530;BME280;24301;54.332;48.386;2023-03-04T03:40:05;97590.97;;;-1.78;83.85
38530;BME280;24301;54.332;48.386;2023-03-04T03:42:31;97584.97;;;-1.79;83.24
38530;BME280;24301;54.332;48.386;2023-03-04T03:44:57;97590.03;;;-1.85;83.35
38530;BME280;24301;54.332;48.386;2023-03-04T03:47:23;97589.19;;;-1.84;83.05
38530;BME280;24301;54.332;48.386;2023-03-04T03:49:49;97590.00;;;-1.86;82.96
38530;BME280;24301;54.332;48.386;2023-03-04T03:52:15;97591.78;;;-1.84;83.13
38530;BME280;24301;54.332;48.386;2023-03-04T03:54:40;97588.22;;;-1.92;82.57
38530;BME280;24301;54.332;48.386;2023-03-04T03:57:09;97578.84;;;-1.85;82.88
38530;BME280;24301;54.332;48.386;2023-03-04T03:59:34;97572.97;;;-1.77;83.08
38530;BME280;24301;54.332;48.386;2023-03-04T04:02:00;97576.59;;;-1.62;83.38
38530;BME280;24301;54.332;48.386;2023-03-04T04:04:26;97573.28;;;-1.49;83.22
38530;BME280;24301;54.332;48.386;2023-03-04T04:06:52;97572.53;;;-1.40;82.57
38530;BME280;24301;54.332;48.386;2023-03-04T04:09:18;97567.47;;;-1.27;83.01
38530;BME280;24301;54.332;48.386;2023-03-04T04:11:44;97568.41;;;-1.24;82.40
38530;BME280;24301;54.332;48.386;2023-03-04T04:14:12;97566.72;;;-1.20;82.04
38530;BME280;24301;54.332;48.386;2023-03-04T04:16:38;97559.97;;;-1.07;82.12
38530;BME280;24301;54.332;48.386;2023-03-04T04:19:04;97569.53;;;-0.95;81.68
38530;BME280;24301;54.332;48.386;2023-03-04T04:21:30;97561.91;;;-0.84;81.75
38530;BME280;24301;54.332;48.386;2023-03-04T04:23:55;97563.75;;;-0.66;81.41
38530;BME280;24301;54.332;48.386;2023-03-04T04:26:21;97566.44;;;-0.51;81.50
38530;BME280;24301;54.332;48.386;2023-03-04T04:28:47;97567.41;;;-0.38;80.75
38530;BME280;24301;54.332;48.386;2023-03-04T04:31:13;97566.59;;;-0.29;80.11
38530;BME280;24301;54.332;48.386;2023-03-04T04:33:39;97553.72;;;-0.24;79.97
38530;BME280;24301;54.332;48.386;2023-03-04T04:36:05;97566.66;;;-0.20;79.96
38530;BME280;24301;54.332;48.386;2023-03-04T04:38:31;97567.50;;;-0.22;79.19
38530;BME280;24301;54.332;48.386;2023-03-04T04:40:58;97561.47;;;-0.21;79.29
38530;BME280;24301;54.332;48.386;2023-03-04T04:43:24;97562.34;;;-0.19;79.20
38530;BME280;24301;54.332;48.386;2023-03-04T04:45:50;97562.34;;;-0.19;78.87
38530;BME280;24301;54.332;48.386;2023-03-04T04:48:16;97564.06;;;-0.18;78.83
38530;BME280;24301;54.332;48.386;2023-03-04T04:50:42;97558.09;;;-0.12;78.52
38530;BME280;24301;54.332;48.386;2023-03-04T04:53:11;97561.63;;;0.05;78.44
38530;BME280;24301;54.332;48.386;2023-03-04T04:55:38;97555.66;;;0.17;78.20
38530;BME280;24301;54.332;48.386;2023-03-04T04:58:05;97554.84;;;0.29;77.81
38530;BME280;24301;54.332;48.386;2023-03-04T05:00:32;97562.66;;;0.40;77.25
38530;BME280;24301;54.332;48.386;2023-03-04T05:02:58;97551.47;;;0.49;77.32
38530;BME280;24301;54.332;48.386;2023-03-04T05:05:23;97548.91;;;0.60;76.66
38530;BME280;24301;54.332;48.386;2023-03-04T05:07:49;97554.97;;;0.73;76.55
38530;BME280;24301;54.332;48.386;2023-03-04T05:10:15;97560.19;;;0.86;76.41
38530;BME280;24301;54.332;48.386;2023-03-04T05:12:43;97555.91;;;0.92;75.90
38530;BME280;24301;54.332;48.386;2023-03-04T05:15:09;97567.13;;;1.06;75.92
38530;BME280;24301;54.332;48.386;2023-03-04T05:17:36;97562.81;;;1.18;75.54
38530;BME280;24301;54.332;48.386;2023-03-04T05:20:02;97552.47;;;1.21;75.16
38530;BME280;24301;54.332;48.386;2023-03-04T05:22:28;97552.47;;;1.21;74.62
38530;BME280;24301;54.332;48.386;2023-03-04T05:24:54;97546.44;;;1.16;74.29
38530;BME280;24301;54.332;48.386;2023-03-04T05:27:20;97554.19;;;1.19;74.17
38530;BME280;24301;54.332;48.386;2023-03-04T05:29:46;97554.19;;;1.28;74.64
38530;BME280;24301;54.332;48.386;2023-03-04T05:32:12;97555.06;;;1.28;74.51
38530;BME280;24301;54.332;48.386;2023-03-04T05:34:38;97543.84;;;1.22;74.07
38530;BME280;24301;54.332;48.386;2023-03-04T05:37:04;97549.00;;;1.28;74.19
38530;BME280;24301;54.332;48.386;2023-03-04T05:39:30;97547.28;;;1.30;74.50
38530;BME280;24301;54.332;48.386;2023-03-04T05:41:55;97542.97;;;1.26;74.11
38530;BME280;24301;54.332;48.386;2023-03-04T05:44:21;97546.44;;;1.33;74.04
38530;BME280;24301;54.332;48.386;2023-03-04T05:46:47;97537.78;;;1.38;74.00
38530;BME280;24301;54.332;48.386;2023-03-04T05:49:13;97544.69;;;1.47;74.19
38530;BME280;24301;54.332;48.386;2023-03-04T05:51:39;97540.38;;;1.41;73.48
38530;BME280;24301;54.332;48.386;2023-03-04T05:54:04;97543.84;;;1.36;74.04
38530;BME280;24301;54.332;48.386;2023-03-04T05:56:30;97539.53;;;1.28;73.68
38530;BME280;24301;54.332;48.386;2023-03-04T05:58:58;97539.50;;;1.19;73.54
38530;BME280;24301;54.332;48.386;2023-03-04T06:01:24;97538.63;;;1.06;74.01
38530;BME280;24301;54.332;48.386;2023-03-04T06:03:50;97525.72;;;1.08;74.71
38530;BME280;24301;54.332;48.386;2023-03-04T06:06:16;97529.16;;;1.25;75.23
38530;BME280;24301;54.332;48.386;2023-03-04T06:08:42;97522.22;;;1.38;73.71
38530;BME280;24301;54.332;48.386;2023-03-04T06:11:08;97522.22;;;1.49;74.38
38530;BME280;24301;54.332;48.386;2023-03-04T06:13:35;97518.75;;;1.61;73.86
38530;BME280;24301;54.332;48.386;2023-03-04T06:16:01;97521.38;;;1.55;73.69
38530;BME280;24301;54.332;48.386;2023-03-04T06:18:27;97512.72;;;1.56;74.13
38530;BME280;24301;54.332;48.386;2023-03-04T06:20:58;97500.63;;;1.69;74.34
38530;BME280;24301;54.332;48.386;2023-03-04T06:23:25;97506.66;;;1.71;73.89
38530;BME280;24301;54.332;48.386;2023-03-04T06:25:56;97510.97;;;1.77;74.26
38530;BME280;24301;54.332;48.386;2023-03-04T06:28:22;97495.41;;;1.77;73.69
38530;BME280;24301;54.332;48.386;2023-03-04T06:30:51;97491.06;;;1.86;73.46
38530;BME280;24301;54.332;48.386;2023-03-04T06:33:18;97490.22;;;1.83;73.45
38530;BME280;24301;54.332;48.386;2023-03-04T06:35:44;97484.19;;;1.78;73.00
38530;BME280;24301;54.332;48.386;2023-03-04T06:38:09;97489.34;;;1.76;73.40
38530;BME280;24301;54.332;48.386;2023-03-04T06:40:35;97493.66;;;1.85;73.61
38530;BME280;24301;54.332;48.386;2023-03-04T06:43:01;97492.78;;;1.94;73.17
38530;BME280;24301;54.332;48.386;2023-03-04T06:45:27;97463.41;;;1.92;72.53
38530;BME280;24301;54.332;48.386;2023-03-04T06:47:53;97481.50;;;2.01;73.10
38530;BME280;24301;54.332;48.386;2023-03-04T06:50:19;97484.06;;;2.18;73.48
38530;BME280;24301;54.332;48.386;2023-03-04T06:52:45;97464.06;;;2.33;72.41
38530;BME280;24301;54.332;48.386;2023-03-04T06:55:11;97451.94;;;2.44;72.32
38530;BME280;24301;54.332;48.386;2023-03-04T06:57:38;97460.41;;;2.65;71.53
38530;BME280;24301;54.332;48.386;2023-03-04T07:00:05;97460.31;;;2.85;71.71
38530;BME280;24301;54.332;48.386;2023-03-04T07:02:31;97463.50;;;3.15;71.14
38530;BME280;24301;54.332;48.386;2023-03-04T07:04:57;97449.44;;;3.39;70.57
38530;BME280;24301;54.332;48.386;2023-03-04T07:07:23;97462.13;;;3.70;69.98
38530;BME280;24301;54.332;48.386;2023-03-04T07:09:50;97451.66;;;3.75;68.76
38530;BME280;24301;54.332;48.386;2023-03-04T07:12:16;97441.28;;;3.72;68.74
38530;BME280;24301;54.332;48.386;2023-03-04T07:14:42;97450.94;;;3.62;68.26
38530;BME280;24301;54.332;48.386;2023-03-04T07:17:08;97462.50;;;3.30;68.00
38530;BME280;24301;54.332;48.386;2023-03-04T07:19:34;97453.59;;;2.56;67.72
38530;BME280;24301;54.332;48.386;2023-03-04T07:22:00;97454.78;;;1.82;69.18
38530;BME280;24301;54.332;48.386;2023-03-04T07:24:27;97460.09;;;1.35;70.06
38530;BME280;24301;54.332;48.386;2023-03-04T07:26:53;97452.38;;;1.01;71.26
38530;BME280;24301;54.332;48.386;2023-03-04T07:29:18;97453.25;;;0.91;72.97
38530;BME280;24301;54.332;48.386;2023-03-04T07:31:44;97446.34;;;0.82;72.81
38530;BME280;24301;54.332;48.386;2023-03-04T07:34:12;97447.19;;;0.76;74.40
38530;BME280;24301;54.332;48.386;2023-03-04T07:36:38;97442.88;;;0.86;74.21
38530;BME280;24301;54.332;48.386;2023-03-04T07:39:05;97436.84;;;0.87;74.08
38530;BME280;24301;54.332;48.386;2023-03-04T07:41:31;97440.31;;;0.91;74.66
38530;BME280;24301;54.332;48.386;2023-03-04T07:44:01;97432.53;;;0.97;74.55
38530;BME280;24301;54.332;48.386;2023-03-04T07:46:28;97429.94;;;0.84;74.65
38530;BME280;24301;54.332;48.386;2023-03-04T07:48:54;97445.47;;;0.88;74.44
38530;BME280;24301;54.332;48.386;2023-03-04T07:51:22;97437.72;;;0.69;74.64
38530;BME280;24301;54.332;48.386;2023-03-04T07:53:51;97431.69;;;0.67;75.24
38530;BME280;24301;54.332;48.386;2023-03-04T07:56:21;97433.41;;;0.74;75.44
38530;BME280;24301;54.332;48.386;2023-03-04T07:58:47;97429.09;;;0.70;75.39
38530;BME280;24301;54.332;48.386;2023-03-04T08:01:19;97426.50;;;0.73;75.96
38530;BME280;24301;54.332;48.386;2023-03-04T08:03:45;97429.09;;;0.78;76.08
38530;BME280;24301;54.332;48.386;2023-03-04T08:06:13;97425.63;;;0.71;76.26
38530;BME280;24301;54.332;48.386;2023-03-04T08:08:40;97419.59;;;0.53;77.40
38530;BME280;24301;54.332;48.386;2023-03-04T08:11:18;97428.22;;;0.51;78.18
38530;BME280;24301;54.332;48.386;2023-03-04T08:13:45;97421.28;;;0.36;78.31
38530;BME280;24301;54.332;48.386;2023-03-04T08:16:13;97423.84;;;0.19;79.46
38530;BME280;24301;54.332;48.386;2023-03-04T08:18:44;97424.72;;;0.28;80.22
38530;BME280;24301;54.332;48.386;2023-03-04T08:21:11;97412.66;;;0.41;80.22
38530;BME280;24301;54.332;48.386;2023-03-04T08:23:37;97413.53;;;0.43;79.53
38530;BME280;24301;54.332;48.386;2023-03-04T08:26:07;97410.94;;;0.26;80.17
38530;BME280;24301;54.332;48.386;2023-03-04T08:28:34;97412.66;;;0.15;81.07
38530;BME280;24301;54.332;48.386;2023-03-04T08:31:00;97410.03;;;0.23;81.17
38530;BME280;24301;54.332;48.386;2023-03-04T08:33:26;97401.41;;;0.11;81.97
38530;BME280;24301;54.332;48.386;2023-03-04T08:35:52;97397.13;;;0.13;81.89
38530;BME280;24301;54.332;48.386;2023-03-04T08:38:18;97397.97;;;0.12;82.59
38530;BME280;24301;54.332;48.386;2023-03-04T08:40:44;97391.09;;;0.18;82.68
38530;BME280;24301;54.332;48.386;2023-03-04T08:43:09;97384.22;;;0.31;83.32
38530;BME280;24301;54.332;48.386;2023-03-04T08:45:35;97378.22;;;0.47;82.93
38530;BME280;24301;54.332;48.386;2023-03-04T08:48:01;97378.19;;;0.63;83.50
38530;BME280;24301;54.332;48.386;2023-03-04T08:50:28;97374.75;;;0.82;82.79
38530;BME280;24301;54.332;48.386;2023-03-04T08:52:54;97371.28;;;0.93;82.43
38530;BME280;24301;54.332;48.386;2023-03-04T08:55:20;97369.59;;;0.73;81.40
38530;BME280;24301;54.332;48.386;2023-03-04T08:57:46;97373.88;;;0.55;81.64
38530;BME280;24301;54.332;48.386;2023-03-04T09:00:12;97368.72;;;0.52;82.58
38530;BME280;24301;54.332;48.386;2023-03-04T09:02:38;97364.41;;;0.48;83.18
38530;BME280;24301;54.332;48.386;2023-03-04T09:05:04;97354.06;;;0.45;82.94
38530;BME280;24301;54.332;48.386;2023-03-04T09:07:30;97358.38;;;0.62;84.05
38530;BME280;24301;54.332;48.386;2023-03-04T09:09:56;97348.03;;;0.68;83.83
38530;BME280;24301;54.332;48.386;2023-03-04T09:12:22;97340.25;;;0.93;84.42
38530;BME280;24301;54.332;48.386;2023-03-04T09:14:48;97334.19;;;1.00;83.05
38530;BME280;24301;54.332;48.386;2023-03-04T09:17:14;97331.59;;;0.95;83.26
38530;BME280;24301;54.332;48.386;2023-03-04T09:19:41;97329.84;;;1.05;83.27
38530;BME280;24301;54.332;48.386;2023-03-04T09:22:07;97328.97;;;1.14;83.36
38530;BME280;24301;54.332;48.386;2023-03-04T09:24:33;97319.41;;;1.39;83.18
38530;BME280;24301;54.332;48.386;2023-03-04T09:26:59;97318.41;;;1.64;83.04
38530;BME280;24301;54.332;48.386;2023-03-04T09:29:25;97314.00;;;1.80;82.89
38530;BME280;24301;54.332;48.386;2023-03-04T09:31:51;97308.81;;;1.83;82.17
38530;BME280;24301;54.332;48.386;2023-03-04T09:34:16;97314.88;;;1.80;81.87
38530;BME280;24301;54.332;48.386;2023-03-04T09:36:42;97315.84;;;1.65;81.73
38530;BME280;24301;54.332;48.386;2023-03-04T09:39:08;97308.88;;;1.74;82.08
38530;BME280;24301;54.332;48.386;2023-03-04T09:41:43;97305.34;;;1.84;81.78
38530;BME280;24301;54.332;48.386;2023-03-04T09:44:29;97302.69;;;1.96;81.19
38530;BME280;24301;54.332;48.386;2023-03-04T09:47:02;97311.34;;;1.94;81.30
38530;BME280;24301;54.332;48.386;2023-03-04T09:49:29;97297.59;;;1.82;80.57
38530;BME280;24301;54.332;48.386;2023-03-04T09:52:17;97299.34;;;1.80;81.00
38530;BME280;24301;54.332;48.386;2023-03-04T10:00:12;97283.09;;;1.47;83.23
38530;BME280;24301;54.332;48.386;2023-03-04T10:03:09;97278.63;;;1.77;83.04
38530;BME280;24301;54.332;48.386;2023-03-04T10:08:33;97282.59;;;2.28;81.52
38530;BME280;24301;54.332;48.386;2023-03-04T10:11:03;97276.47;;;2.34;80.84
38530;BME280;24301;54.332;48.386;2023-03-04T10:13:47;97278.44;;;2.02;80.07
38530;BME280;24301;54.332;48.386;2023-03-04T10:16:20;97273.56;;;1.54;80.00
38530;BME280;24301;54.332;48.386;2023-03-04T10:18:51;97271.13;;;1.23;81.41
38530;BME280;24301;54.332;48.386;2023-03-04T10:23:47;97264.34;;;0.84;83.20
38530;BME280;24301;54.332;48.386;2023-03-04T10:26:16;97261.75;;;0.88;84.36
38530;BME280;24301;54.332;48.386;2023-03-04T10:28:45;97261.72;;;0.97;85.43
38530;BME280;24301;54.332;48.386;2023-03-04T10:31:27;97257.41;;;0.99;84.49
38530;BME280;24301;54.332;48.386;2023-03-04T10:33:54;97254.84;;;0.93;84.11
38530;BME280;24301;54.332;48.386;2023-03-04T10:39:05;97245.38;;;0.84;85.00
38530;BME280;24301;54.332;48.386;2023-03-04T10:41:32;97247.09;;;0.80;84.84
38530;BME280;24301;54.332;48.386;2023-03-04T10:46:37;97235.94;;;0.77;85.57
38530;BME280;24301;54.332;48.386;2023-03-04T10:49:03;97235.06;;;0.76;85.91
38530;BME280;24301;54.332;48.386;2023-03-04T10:51:30;97235.91;;;0.80;85.93
38530;BME280;24301;54.332;48.386;2023-03-04T10:53:59;97237.59;;;0.85;86.46
38530;BME280;24301;54.332;48.386;2023-03-04T10:56:30;97232.44;;;0.92;87.20
38530;BME280;24301;54.332;48.386;2023-03-04T11:01:52;97225.59;;;0.66;85.26
38530;BME280;24301;54.332;48.386;2023-03-04T11:04:21;97223.88;;;0.63;86.21
38530;BME280;24301;54.332;48.386;2023-03-04T11:06:47;97227.31;;;0.65;87.00
38530;BME280;24301;54.332;48.386;2023-03-04T11:09:30;97227.31;;;0.67;86.28
38530;BME280;24301;54.332;48.386;2023-03-04T11:12:00;97216.97;;;0.68;86.57
38530;BME280;24301;54.332;48.386;2023-03-04T11:14:36;97221.25;;;0.79;86.95
38530;BME280;24301;54.332;48.386;2023-03-04T11:17:24;97214.41;;;0.67;86.51
38530;BME280;24301;54.332;48.386;2023-03-04T11:20:04;97225.59;;;0.67;86.43
38530;BME280;24301;54.332;48.386;2023-03-04T11:22:33;97209.22;;;0.61;87.13
38530;BME280;24301;54.332;48.386;2023-03-04T11:25:05;97209.22;;;0.62;87.34
38530;BME280;24301;54.332;48.386;2023-03-04T11:27:41;97208.38;;;0.60;86.78
38530;BME280;24301;54.332;48.386;2023-03-04T11:32:48;97210.06;;;0.67;87.65
38530;BME280;24301;54.332;48.386;2023-03-04T11:38:55;97204.06;;;0.54;88.51
38530;BME280;24301;54.332;48.386;2023-03-04T11:41:35;97202.34;;;0.56;88.33
38530;BME280;24301;54.332;48.386;2023-03-04T11:44:05;97198.03;;;0.48;88.20
38530;BME280;24301;54.332;48.386;2023-03-04T11:46:40;97198.06;;;0.45;88.57
38530;BME280;24301;54.332;48.386;2023-03-04T12:00:40;97193.75;;;0.40;90.37
38530;BME280;24301;54.332;48.386;2023-03-04T12:03:26;97180.75;;;0.65;89.79
38530;BME280;24301;54.332;48.386;2023-03-04T12:17:11;97174.50;;;1.18;88.61
38530;BME280;24301;54.332;48.386;2023-03-04T12:19:55;97169.31;;;1.21;88.34
38530;BME280;24301;54.332;48.386;2023-03-04T12:22:41;97173.56;;;1.31;88.31
38530;BME280;24301;54.332;48.386;2023-03-04T12:37:15;97159.69;;;1.41;88.60
38530;BME280;24301;54.332;48.386;2023-03-04T12:40:03;97167.34;;;1.57;87.48
38530;BME280;24301;54.332;48.386;2023-03-04T12:42:36;97169.03;;;1.64;87.53
38530;BME280;24301;54.332;48.386;2023-03-04T12:50:35;97155.16;;;1.70;87.36
38530;BME280;24301;54.332;48.386;2023-03-04T12:53:26;97162.00;;;1.79;87.32
38530;BME280;24301;54.332;48.386;2023-03-04T12:55:51;97156.72;;;1.88;86.45
38530;BME280;24301;54.332;48.386;2023-03-04T12:58:21;97156.63;;;2.00;86.27
38530;BME280;24301;54.332;48.386;2023-03-04T13:06:48;97149.53;;;2.21;85.24
38530;BME280;24301;54.332;48.386;2023-03-04T13:09:27;97150.41;;;2.19;84.93
38530;BME280;24301;54.332;48.386;2023-03-04T13:12:17;97148.69;;;2.19;84.13
38530;BME280;24301;54.332;48.386;2023-03-04T13:20:35;97141.03;;;2.08;83.83
38530;BME280;24301;54.332;48.386;2023-03-04T13:25:49;97142.66;;;2.14;84.08
38530;BME280;24301;54.332;48.386;2023-03-04T13:28:36;97145.28;;;2.12;84.23
38530;BME280;24301;54.332;48.386;2023-03-04T13:31:20;97149.72;;;2.03;83.22
38530;BME280;24301;54.332;48.386;2023-03-04T13:33:51;97148.03;;;1.98;83.55
38530;BME280;24301;54.332;48.386;2023-03-04T13:36:50;97147.16;;;1.99;84.20
38530;BME280;24301;54.332;48.386;2023-03-04T13:39:23;97142.00;;;1.95;83.76
38530;BME280;24301;54.332;48.386;2023-03-04T13:41:54;97138.63;;;1.86;84.02
38530;BME280;24301;54.332;48.386;2023-03-04T13:47:14;97136.22;;;1.60;83.41
38530;BME280;24301;54.332;48.386;2023-03-04T13:49:41;97111.38;;;1.40;84.06
38530;BME280;24301;54.332;48.386;2023-03-04T13:52:38;97129.44;;;1.47;83.99
38530;BME280;24301;54.332;48.386;2023-03-04T13:58:22;97128.75;;;1.23;84.23
38530;BME280;24301;54.332;48.386;2023-03-04T14:00:52;97129.66;;;1.16;83.68
38530;BME280;24301;54.332;48.386;2023-03-04T14:03:21;97131.38;;;1.13;83.83
38530;BME280;24301;54.332;48.386;2023-03-04T14:06:12;97130.50;;;1.11;84.77
38530;BME280;24301;54.332;48.386;2023-03-04T14:08:40;97134.88;;;1.06;84.41
38530;BME280;24301;54.332;48.386;2023-03-04T14:13:57;97134.94;;;0.97;84.67
38530;BME280;24301;54.332;48.386;2023-03-04T14:16:26;97122.00;;;0.94;84.96
38530;BME280;24301;54.332;48.386;2023-03-04T14:19:02;97128.00;;;0.97;85.74
38530;BME280;24301;54.332;48.386;2023-03-04T14:21:29;97122.03;;;0.89;85.43
38530;BME280;24301;54.332;48.386;2023-03-04T14:24:07;97126.38;;;0.82;85.01
38530;BME280;24301;54.332;48.386;2023-03-04T14:26:35;97123.81;;;0.81;85.62
38530;BME280;24301;54.332;48.386;2023-03-04T14:29:01;97128.97;;;0.79;86.07
38530;BME280;24301;54.332;48.386;2023-03-04T14:31:30;97137.59;;;0.74;85.66
38530;BME280;24301;54.332;48.386;2023-03-04T14:33:59;97128.16;;;0.71;85.86
38530;BME280;24301;54.332;48.386;2023-03-04T14:36:31;97133.31;;;0.71;85.90